createdAt,value
2023-01-17T00:02:09.988Z,97769.22
2023-01-17T00:04:56.071Z,97773.50
2023-01-17T00:07:42.936Z,97777.78
2023-01-17T00:10:13.232Z,97789.84
2023-01-17T00:12:50.531Z,97783.78
2023-01-17T00:15:20.055Z,97782.00
2023-01-17T00:17:48.164Z,97786.28
2023-01-17T00:20:45.846Z,97788.84
2023-01-17T00:23:38.359Z,97784.50
2023-01-17T00:26:12.557Z,97790.59
2023-01-17T00:28:42.029Z,97790.53
2023-01-17T00:31:12.984Z,97796.66
2023-01-17T00:33:40.293Z,97800.19
2023-01-17T00:36:09.171Z,97802.84
2023-01-17T00:38:38.665Z,97806.34
2023-01-17T00:41:10.871Z,97818.50
2023-01-17T00:43:57.175Z,97817.59
2023-01-17T00:46:43.300Z,97827.06
2023-01-17T00:49:29.351Z,97827.88
2023-01-17T00:52:15.273Z,97834.81
2023-01-17T00:55:00.982Z,97841.72
2023-01-17T00:57:46.912Z,97841.72
2023-01-17T01:00:33.364Z,97853.03
2023-01-17T01:03:19.236Z,97852.13
2023-01-17T01:06:05.112Z,97867.78
2023-01-17T01:08:51.155Z,97858.25
2023-01-17T01:11:39.477Z,97874.75
2023-01-17T01:14:28.873Z,97877.34
2023-01-17T01:17:15.115Z,97870.38
2023-01-17T01:20:01.040Z,97887.66
2023-01-17T01:22:46.789Z,97890.28
2023-01-17T01:25:32.562Z,97892.97
2023-01-17T01:28:29.585Z,97906.84
2023-01-17T01:31:18.809Z,97899.91
2023-01-17T01:33:46.147Z,97916.38
2023-01-17T01:36:13.782Z,97921.56
2023-01-17T01:38:41.077Z,97926.78
2023-01-17T01:41:08.760Z,97929.38
2023-01-17T01:43:55.970Z,97935.41
2023-01-17T01:46:39.546Z,97939.69
2023-01-17T01:49:20.723Z,97954.41
2023-01-17T01:51:54.581Z,97945.72
2023-01-17T01:54:47.560Z,97955.28
2023-01-17T01:57:18.472Z,97954.44
2023-01-17T01:59:52.698Z,97955.31
2023-01-17T02:02:20.224Z,97965.69
2023-01-17T02:04:48.441Z,97963.94
2023-01-17T02:07:23.972Z,97974.31
2023-01-17T02:10:16.599Z,98002.91
2023-01-17T02:12:47.025Z,97993.38
2023-01-17T02:15:14.469Z,97986.50
2023-01-17T02:17:53.874Z,98003.09
2023-01-17T02:21:03.489Z,98010.97
2023-01-17T02:23:38.422Z,98004.88
2023-01-17T02:26:17.853Z,98006.63
2023-01-17T02:29:18.987Z,98011.81
2023-01-17T02:31:52.496Z,98017.94
2023-01-17T02:34:28.717Z,98023.97
2023-01-17T02:37:03.916Z,98024.81
2023-01-17T02:39:40.415Z,98033.44
2023-01-17T02:42:16.561Z,98023.00
2023-01-17T02:44:44.900Z,98028.16
2023-01-17T02:47:22.767Z,98033.31
2023-01-17T02:49:52.780Z,98033.31
2023-01-17T02:52:35.301Z,98033.22
2023-01-17T02:55:21.213Z,98043.63
2023-01-17T02:58:13.545Z,98044.47
2023-01-17T03:00:49.054Z,98056.59
2023-01-17T03:03:22.373Z,98060.91
2023-01-17T03:05:51.561Z,98066.09
2023-01-17T03:08:19.784Z,98076.47
2023-01-17T03:10:47.399Z,98073.00
2023-01-17T03:13:14.742Z,98079.03
2023-01-17T03:15:42.127Z,98081.59
2023-01-17T03:18:14.299Z,98091.13
2023-01-17T03:20:41.982Z,98109.31
2023-01-17T03:23:09.292Z,98087.66
2023-01-17T03:25:36.683Z,98100.66
2023-01-17T03:28:04.282Z,98106.69
2023-01-17T03:30:31.616Z,98104.09
2023-01-17T03:32:59.009Z,98099.72
2023-01-17T03:35:26.334Z,98111.00
2023-01-17T03:37:53.719Z,98108.38
2023-01-17T03:40:20.920Z,98114.44
2023-01-17T03:42:48.181Z,98121.41
2023-01-17T03:45:16.286Z,98128.34
2023-01-17T03:47:43.622Z,98130.06
2023-01-17T03:50:12.409Z,98139.63
2023-01-17T03:52:39.831Z,98150.03
2023-01-17T03:55:07.667Z,98146.66
2023-01-17T03:57:34.873Z,98147.56
2023-01-17T04:00:02.242Z,98154.53
2023-01-17T04:02:34.534Z,98158.06
2023-01-17T04:05:01.847Z,98163.31
2023-01-17T04:07:29.164Z,98173.72
2023-01-17T04:09:56.518Z,98178.06
2023-01-17T04:12:23.809Z,98177.19
2023-01-17T04:14:51.079Z,98186.72
2023-01-17T04:17:20.263Z,98189.41
2023-01-17T04:19:47.703Z,98174.81
2023-01-17T04:22:15.266Z,98188.72
2023-01-17T04:24:42.520Z,98186.19
2023-01-17T04:27:14.283Z,98190.53
2023-01-17T04:29:41.680Z,98198.31
2023-01-17T04:32:09.995Z,98207.88
2023-01-17T04:34:37.287Z,98211.31
2023-01-17T04:37:04.571Z,98213.00
2023-01-17T04:39:31.797Z,98216.47
2023-01-17T04:41:59.187Z,98218.16
2023-01-17T04:44:26.751Z,98219.03
2023-01-17T04:46:54.045Z,98210.41
2023-01-17T04:49:21.316Z,98216.50
2023-01-17T04:51:48.667Z,98216.50
2023-01-17T04:54:15.963Z,98220.00
2023-01-17T04:56:44.234Z,98220.91
2023-01-17T04:59:11.483Z,98227.84
2023-01-17T05:01:38.779Z,98227.00
2023-01-17T05:04:06.100Z,98227.88
2023-01-17T05:06:33.620Z,98227.88
2023-01-17T05:09:02.833Z,98235.72
2023-01-17T05:11:30.318Z,98233.97
2023-01-17T05:13:57.746Z,98239.19
2023-01-17T05:16:25.287Z,98253.03
2023-01-17T05:18:56.532Z,98251.31
2023-01-17T05:21:24.039Z,98257.38
2023-01-17T05:23:51.234Z,98259.16
2023-01-17T05:26:18.629Z,98283.38
2023-01-17T05:28:45.868Z,98294.63
2023-01-17T05:31:13.288Z,98298.09
2023-01-17T05:33:40.627Z,98300.69
2023-01-17T05:36:08.419Z,98306.75
2023-01-17T05:38:36.024Z,98306.75
2023-01-17T05:41:05.145Z,98303.28
2023-01-17T05:43:32.433Z,98313.69
2023-01-17T05:45:59.786Z,98313.69
2023-01-17T05:48:27.276Z,98308.47
2023-01-17T05:50:54.543Z,98317.16
2023-01-17T05:53:21.819Z,98315.44
2023-01-17T05:55:49.932Z,98330.16
2023-01-17T05:58:20.087Z,98328.44
2023-01-17T06:00:48.708Z,98337.94
2023-01-17T06:03:16.219Z,98319.78
2023-01-17T06:05:44.975Z,98327.56
2023-01-17T06:08:12.311Z,98321.53
2023-01-17T06:10:39.778Z,98327.56
2023-01-17T06:13:13.666Z,98328.44
2023-01-17T06:15:41.580Z,98326.72
2023-01-17T06:18:11.711Z,98321.50
2023-01-17T06:20:39.675Z,98331.03
2023-01-17T06:23:10.490Z,98332.75
2023-01-17T06:25:45.730Z,98344.03
2023-01-17T06:28:18.680Z,98344.00
2023-01-17T06:30:46.086Z,98353.50
2023-01-17T06:33:13.855Z,98365.66
2023-01-17T06:35:49.127Z,98361.28
2023-01-17T06:38:16.711Z,98372.53
2023-01-17T06:40:44.102Z,98373.41
2023-01-17T06:43:11.346Z,98378.59
2023-01-17T06:45:38.623Z,98380.31
2023-01-17T06:48:06.201Z,98368.22
2023-01-17T06:50:34.253Z,98379.41
2023-01-17T06:53:05.311Z,98383.75
2023-01-17T06:55:34.096Z,98386.31
2023-01-17T06:58:02.969Z,98387.19
2023-01-17T07:00:31.866Z,98394.06
2023-01-17T07:02:59.243Z,98388.00
2023-01-17T07:05:28.447Z,98393.19
2023-01-17T07:07:58.667Z,98399.19
2023-01-17T07:10:26.008Z,98404.41
2023-01-17T07:12:58.673Z,98412.13
2023-01-17T07:15:25.919Z,98418.19
2023-01-17T07:17:53.244Z,98424.22
2023-01-17T07:20:20.724Z,98428.50
2023-01-17T07:22:48.113Z,98425.91
2023-01-17T07:25:15.502Z,98425.91
2023-01-17T07:27:42.805Z,98424.16
2023-01-17T07:30:11.027Z,98431.91
2023-01-17T07:32:38.559Z,98431.06
2023-01-17T07:35:06.873Z,98430.22
2023-01-17T07:37:34.075Z,98429.31
2023-01-17T07:40:02.721Z,98426.75
2023-01-17T07:42:29.940Z,98435.34
2023-01-17T07:44:57.279Z,98444.00
2023-01-17T07:47:24.912Z,98440.53
2023-01-17T07:49:52.366Z,98444.88
2023-01-17T07:52:19.598Z,98446.59
2023-01-17T07:54:46.909Z,98453.53
2023-01-17T07:57:14.204Z,98456.13
2023-01-17T07:59:41.614Z,98454.41
2023-01-17T08:02:18.036Z,98458.72
2023-01-17T08:04:46.258Z,98457.03
2023-01-17T08:07:14.209Z,98470.03
2023-01-17T08:09:43.638Z,98478.72
2023-01-17T08:12:10.884Z,98485.69
2023-01-17T08:14:38.082Z,98486.63
2023-01-17T08:17:14.558Z,98483.19
2023-01-17T08:19:42.085Z,98484.97
2023-01-17T08:22:09.436Z,98482.38
2023-01-17T08:24:39.431Z,98489.31
2023-01-17T08:27:08.931Z,98485.00
2023-01-17T08:29:37.293Z,98491.09
2023-01-17T08:32:04.813Z,98506.66
2023-01-17T08:34:34.777Z,98510.13
2023-01-17T08:37:02.042Z,98528.34
2023-01-17T08:39:29.313Z,98533.56
2023-01-17T08:41:57.467Z,98525.75
2023-01-17T08:44:24.872Z,98536.16
2023-01-17T08:46:52.275Z,98524.88
2023-01-17T08:49:19.734Z,98525.75
2023-01-17T08:51:47.062Z,98519.69
2023-01-17T08:54:16.491Z,98523.16
2023-01-17T08:56:43.868Z,98515.34
2023-01-17T08:59:13.142Z,98527.47
2023-01-17T09:01:46.191Z,98535.25
2023-01-17T09:04:15.000Z,98533.56
2023-01-17T09:06:47.867Z,98528.34
2023-01-17T09:09:18.577Z,98533.53
2023-01-17T09:11:45.919Z,98536.13
2023-01-17T09:14:13.578Z,98536.13
2023-01-17T09:16:42.537Z,98543.94
2023-01-17T09:19:10.370Z,98537.91
2023-01-17T09:21:38.923Z,98543.09
2023-01-17T09:24:06.488Z,98536.16
2023-01-17T09:26:35.371Z,98528.34
2023-01-17T09:29:02.997Z,98531.81
2023-01-17T09:31:30.373Z,98523.97
2023-01-17T09:33:58.818Z,98528.28
2023-01-17T09:36:29.099Z,98527.41
2023-01-17T09:38:58.113Z,98528.25
2023-01-17T09:41:51.805Z,98524.78
2023-01-17T09:44:26.129Z,98538.69
2023-01-17T09:46:59.262Z,98545.66
2023-01-17T09:49:35.458Z,98541.31
2023-01-17T09:52:04.901Z,98558.63
2023-01-17T09:54:47.802Z,98556.91
2023-01-17T09:57:28.008Z,98566.44
2023-01-17T10:00:19.855Z,98563.00
2023-01-17T10:03:09.595Z,98571.63
2023-01-17T10:05:55.527Z,98573.34
2023-01-17T10:08:22.725Z,98576.81
2023-01-17T10:11:21.782Z,98580.31
2023-01-17T10:14:04.586Z,98582.91
2023-01-17T10:16:31.832Z,98594.16
2023-01-17T10:19:13.806Z,98592.41
2023-01-17T10:22:10.258Z,98581.97
2023-01-17T10:25:13.097Z,98585.38
2023-01-17T10:27:57.912Z,98584.50
2023-01-17T10:30:46.099Z,98579.31
2023-01-17T10:33:23.273Z,98581.91
2023-01-17T10:35:57.103Z,98587.97
2023-01-17T10:38:30.049Z,98590.56
2023-01-17T10:41:02.607Z,98594.06
2023-01-17T10:43:35.765Z,98604.53
2023-01-17T10:46:03.842Z,98594.13
2023-01-17T10:48:34.150Z,98590.66
2023-01-17T10:51:20.476Z,98593.31
2023-01-17T10:53:53.945Z,98594.19
2023-01-17T10:56:25.563Z,98593.31
2023-01-17T10:59:23.610Z,98584.66
2023-01-17T11:01:51.382Z,98589.00
2023-01-17T11:04:30.899Z,98589.88
2023-01-17T11:07:28.424Z,98576.84
2023-01-17T11:09:58.033Z,98580.31
2023-01-17T11:12:45.186Z,98577.72
2023-01-17T11:15:12.412Z,98569.94
2023-01-17T11:18:00.256Z,98569.94
2023-01-17T11:21:09.572Z,98567.31
2023-01-17T11:23:38.357Z,98563.84
2023-01-17T11:26:10.237Z,98551.75
2023-01-17T11:28:39.903Z,98554.34
2023-01-17T11:31:24.513Z,98549.16
2023-01-17T11:34:08.103Z,98556.06
2023-01-17T11:36:35.606Z,98550.88
2023-01-17T11:39:22.496Z,98545.66
2023-01-17T11:41:51.066Z,98538.69
2023-01-17T11:44:32.952Z,98543.84
2023-01-17T11:47:19.380Z,98542.94
2023-01-17T11:49:49.050Z,98547.25
2023-01-17T11:52:33.693Z,98544.56
2023-01-17T11:55:02.510Z,98542.81
2023-01-17T11:57:50.657Z,98540.16
2023-01-17T12:00:24.041Z,98541.00
2023-01-17T12:03:30.214Z,98554.00
2023-01-17T12:06:08.490Z,98556.66
2023-01-17T12:08:54.515Z,98542.78
2023-01-17T12:11:30.830Z,98555.78
2023-01-17T12:14:23.828Z,98541.03
2023-01-17T12:17:16.055Z,98541.88
2023-01-17T12:20:05.125Z,98553.16
2023-01-17T12:22:44.084Z,98547.06
2023-01-17T12:25:34.224Z,98553.97
2023-01-17T12:28:18.861Z,98547.00
2023-01-17T12:31:13.532Z,98553.09
2023-01-17T12:34:18.921Z,98547.00
2023-01-17T12:36:52.209Z,98547.00
2023-01-17T12:39:26.508Z,98545.25
2023-01-17T12:42:14.013Z,98549.63
2023-01-17T12:45:00.369Z,98549.63
2023-01-17T12:47:27.988Z,98546.16
2023-01-17T12:50:04.213Z,98553.97
2023-01-17T12:52:59.364Z,98557.41
2023-01-17T12:55:54.832Z,98553.91
2023-01-17T12:58:29.276Z,98552.16
2023-01-17T13:01:04.695Z,98548.66
2023-01-17T13:03:48.187Z,98559.06
2023-01-17T13:06:40.962Z,98557.34
2023-01-17T13:09:13.670Z,98563.41
2023-01-17T13:11:49.812Z,98551.28
2023-01-17T13:14:17.369Z,98560.84
2023-01-17T13:16:54.740Z,98559.09
2023-01-17T13:19:49.021Z,98559.97
2023-01-17T13:22:21.973Z,98553.03
2023-01-17T13:25:13.761Z,98560.84
2023-01-17T13:27:53.901Z,98559.03
2023-01-17T13:30:48.219Z,98549.47
2023-01-17T13:33:34.284Z,98551.16
2023-01-17T13:36:40.158Z,98554.63
2023-01-17T13:39:07.460Z,98559.84
2023-01-17T13:41:55.021Z,98564.19
2023-01-17T13:44:27.928Z,98562.44
2023-01-17T13:47:01.118Z,98574.63
2023-01-17T13:49:28.520Z,98565.09
2023-01-17T13:52:19.023Z,98565.09
2023-01-17T13:54:57.157Z,98577.28
2023-01-17T13:57:30.134Z,98580.72
2023-01-17T14:00:00.934Z,98578.13
2023-01-17T14:02:38.953Z,98582.47
2023-01-17T14:05:23.947Z,98585.97
2023-01-17T14:08:05.144Z,98572.97
2023-01-17T14:10:47.846Z,98577.38
2023-01-17T14:13:38.500Z,98585.22
2023-01-17T14:16:25.498Z,98594.75
2023-01-17T14:18:54.384Z,98596.50
2023-01-17T14:21:24.359Z,98593.03
2023-01-17T14:24:00.587Z,98605.19
2023-01-17T14:26:36.858Z,98595.63
2023-01-17T14:29:42.487Z,98599.97
2023-01-17T14:32:13.176Z,98604.31
2023-01-17T14:34:40.745Z,98610.38
2023-01-17T14:37:40.497Z,98610.38
2023-01-17T14:40:35.983Z,98616.47
2023-01-17T14:43:07.791Z,98614.72
2023-01-17T14:45:36.498Z,98620.78
2023-01-17T14:48:06.915Z,98628.59
2023-01-17T14:50:39.899Z,98624.28
2023-01-17T14:53:13.466Z,98625.16
2023-01-17T14:55:53.004Z,98628.66
2023-01-17T14:58:27.985Z,98629.50
2023-01-17T15:01:13.835Z,98628.66
2023-01-17T15:03:48.844Z,98634.75
2023-01-17T15:06:22.473Z,98638.19
2023-01-17T15:08:54.875Z,98639.94
2023-01-17T15:11:31.538Z,98645.16
2023-01-17T15:14:05.793Z,98647.78
2023-01-17T15:16:38.305Z,98650.41
2023-01-17T15:19:14.246Z,98646.94
2023-01-17T15:21:44.011Z,98648.72
2023-01-17T15:24:28.097Z,98649.59
2023-01-17T15:26:55.973Z,98652.22
2023-01-17T15:29:26.885Z,98648.78
2023-01-17T15:31:58.351Z,98647.91
2023-01-17T15:34:32.438Z,98655.72
2023-01-17T15:37:19.872Z,98657.47
2023-01-17T15:39:48.504Z,98657.47
2023-01-17T15:42:26.255Z,98661.78
2023-01-17T15:44:56.574Z,98660.06
2023-01-17T15:47:29.798Z,98661.75
2023-01-17T15:49:57.866Z,98657.44
2023-01-17T15:52:25.393Z,98669.53
2023-01-17T15:54:58.709Z,98666.91
2023-01-17T15:57:29.565Z,98666.91
2023-01-17T16:00:21.336Z,98672.94
2023-01-17T16:02:55.468Z,98665.13
2023-01-17T16:05:28.251Z,98656.47
2023-01-17T16:07:57.869Z,98668.53
2023-01-17T16:10:28.852Z,98667.63
2023-01-17T16:12:59.134Z,98664.16
2023-01-17T16:15:28.780Z,98665.00
2023-01-17T16:18:04.299Z,98670.19
2023-01-17T16:20:39.960Z,98671.00
2023-01-17T16:23:11.721Z,98671.00
2023-01-17T16:25:39.127Z,98676.16
2023-01-17T16:28:07.349Z,98668.38
2023-01-17T16:30:34.655Z,98672.66
2023-01-17T16:33:03.904Z,98679.56
2023-01-17T16:35:34.074Z,98676.94
2023-01-17T16:38:07.065Z,98678.66
2023-01-17T16:40:40.478Z,98688.13
2023-01-17T16:43:07.877Z,98688.13
2023-01-17T16:45:47.197Z,98685.50
2023-01-17T16:48:16.019Z,98688.09
2023-01-17T16:50:52.503Z,98695.84
2023-01-17T16:53:24.675Z,98701.00
2023-01-17T16:55:55.457Z,98697.53
2023-01-17T16:58:23.041Z,98697.53
2023-01-17T17:00:50.540Z,98694.91
2023-01-17T17:03:20.187Z,98699.19
2023-01-17T17:06:00.555Z,98696.56
2023-01-17T17:08:29.530Z,98696.50
2023-01-17T17:11:13.279Z,98701.69
2023-01-17T17:13:46.191Z,98699.06
2023-01-17T17:16:32.890Z,98712.88
2023-01-17T17:19:06.414Z,98711.09
2023-01-17T17:21:35.658Z,98714.53
2023-01-17T17:24:03.963Z,98708.47
2023-01-17T17:26:34.978Z,98715.41
2023-01-17T17:29:03.769Z,98713.66
2023-01-17T17:31:31.167Z,98711.06
2023-01-17T17:34:03.363Z,98707.56
2023-01-17T17:36:31.376Z,98714.47
2023-01-17T17:38:58.864Z,98711.00
2023-01-17T17:41:29.333Z,98711.00
2023-01-17T17:43:57.085Z,98712.72
2023-01-17T17:46:25.857Z,98717.03
2023-01-17T17:48:58.579Z,98711.81
2023-01-17T17:51:48.069Z,98717.84
2023-01-17T17:54:17.361Z,98725.59
2023-01-17T17:56:50.445Z,98729.00
2023-01-17T17:59:21.096Z,98736.72
2023-01-17T18:01:49.114Z,98739.31
2023-01-17T18:04:17.082Z,98732.41
2023-01-17T18:06:45.172Z,98735.81
2023-01-17T18:09:13.486Z,98741.00
2023-01-17T18:11:42.745Z,98741.00
2023-01-17T18:14:15.019Z,98741.81
2023-01-17T18:16:43.942Z,98734.03
2023-01-17T18:19:18.461Z,98739.19
2023-01-17T18:21:45.993Z,98738.28
2023-01-17T18:24:16.892Z,98739.13
2023-01-17T18:26:57.286Z,98737.38
2023-01-17T18:29:27.001Z,98740.81
2023-01-17T18:31:54.869Z,98744.25
2023-01-17T18:34:27.014Z,98746.00
2023-01-17T18:36:55.703Z,98747.69
2023-01-17T18:39:25.585Z,98745.09
2023-01-17T18:41:54.012Z,98757.19
2023-01-17T18:44:22.687Z,98765.81
2023-01-17T18:46:51.373Z,98766.63
2023-01-17T18:49:19.461Z,98765.81
2023-01-17T18:51:50.984Z,98764.03
2023-01-17T18:54:20.433Z,98776.97
2023-01-17T18:56:48.216Z,98772.66
2023-01-17T18:59:18.666Z,98778.69
2023-01-17T19:01:46.222Z,98788.19
2023-01-17T19:04:15.635Z,98784.75
2023-01-17T19:06:48.323Z,98787.34
2023-01-17T19:09:20.078Z,98795.97
2023-01-17T19:11:48.067Z,98802.88
2023-01-17T19:14:22.072Z,98810.66
2023-01-17T19:16:49.909Z,98812.34
2023-01-17T19:19:17.597Z,98818.38
2023-01-17T19:21:45.331Z,98814.03
2023-01-17T19:24:13.322Z,98814.00
2023-01-17T19:26:42.055Z,98807.97
2023-01-17T19:29:12.207Z,98809.69
2023-01-17T19:31:43.759Z,98809.66
2023-01-17T19:34:14.261Z,98809.63
2023-01-17T19:36:42.531Z,98816.50
2023-01-17T19:39:10.571Z,98806.16
2023-01-17T19:41:43.224Z,98815.63
2023-01-17T19:44:12.844Z,98818.19
2023-01-17T19:46:40.352Z,98814.72
2023-01-17T19:49:09.020Z,98821.63
2023-01-17T19:51:36.947Z,98822.47
2023-01-17T19:54:06.485Z,98831.06
2023-01-17T19:56:35.521Z,98827.66
2023-01-17T19:59:03.214Z,98826.75
2023-01-17T20:01:34.891Z,98830.22
2023-01-17T20:04:03.377Z,98832.78
2023-01-17T20:06:34.324Z,98839.69
2023-01-17T20:09:03.192Z,98841.41
2023-01-17T20:11:30.668Z,98836.22
2023-01-17T20:14:00.116Z,98844.00
2023-01-17T20:16:38.485Z,98855.22
2023-01-17T20:19:06.629Z,98854.31
2023-01-17T20:21:34.529Z,98854.31
2023-01-17T20:24:05.204Z,98859.50
2023-01-17T20:26:34.935Z,98857.78
2023-01-17T20:29:12.965Z,98858.59
2023-01-17T20:31:42.807Z,98860.34
2023-01-17T20:34:14.106Z,98859.44
2023-01-17T20:36:55.999Z,98860.28
2023-01-17T20:39:23.382Z,98868.88
2023-01-17T20:41:51.676Z,98865.34
2023-01-17T20:44:19.667Z,98877.38
2023-01-17T20:46:50.682Z,98879.09
2023-01-17T20:49:19.694Z,98871.31
2023-01-17T20:51:47.384Z,98875.56
2023-01-17T20:54:17.868Z,98872.06
2023-01-17T20:56:47.629Z,98874.63
2023-01-17T20:59:18.519Z,98871.97
2023-01-17T21:01:46.304Z,98878.81
2023-01-17T21:04:14.820Z,98877.94
2023-01-17T21:06:43.407Z,98879.63
2023-01-17T21:09:13.244Z,98878.75
2023-01-17T21:11:40.588Z,98881.34
2023-01-17T21:14:08.301Z,98894.25
2023-01-17T21:16:36.945Z,98893.34
2023-01-17T21:19:04.532Z,98907.16
2023-01-17T21:21:32.262Z,98902.84
2023-01-17T21:24:05.740Z,98898.47
2023-01-17T21:26:33.742Z,98901.88
2023-01-17T21:29:02.071Z,98902.78
2023-01-17T21:31:35.875Z,98913.13
2023-01-17T21:34:10.290Z,98912.25
2023-01-17T21:36:43.324Z,98905.41
2023-01-17T21:39:13.741Z,98905.44
2023-01-17T21:41:42.172Z,98902.84
2023-01-17T21:44:15.388Z,98902.84
2023-01-17T21:46:45.325Z,98906.28
2023-01-17T21:49:12.825Z,98903.69
2023-01-17T21:51:53.151Z,98902.78
2023-01-17T21:54:47.265Z,98898.44
2023-01-17T21:57:36.956Z,98909.63
2023-01-17T22:00:07.172Z,98914.75
2023-01-17T22:02:48.287Z,98912.13
2023-01-17T22:05:19.740Z,98923.38
2023-01-17T22:08:06.492Z,98916.44
2023-01-17T22:10:44.614Z,98916.44
2023-01-17T22:13:14.515Z,98925.06
2023-01-17T22:15:42.520Z,98927.63
2023-01-17T22:18:12.073Z,98930.19
2023-01-17T22:20:43.648Z,98931.03
2023-01-17T22:23:11.960Z,98937.94
2023-01-17T22:25:40.477Z,98931.94
2023-01-17T22:28:08.075Z,98931.94
2023-01-17T22:30:35.474Z,98930.19
2023-01-17T22:33:03.339Z,98920.66
2023-01-17T22:35:30.896Z,98927.56
2023-01-17T22:38:00.480Z,98939.59
2023-01-17T22:40:28.493Z,98931.78
2023-01-17T22:42:56.329Z,98941.25
2023-01-17T22:45:25.918Z,98936.03
2023-01-17T22:47:53.503Z,98931.69
2023-01-17T22:50:20.931Z,98936.84
2023-01-17T22:52:48.399Z,98936.75
2023-01-17T22:55:18.287Z,98937.56
2023-01-17T22:57:46.824Z,98953.88
2023-01-17T23:00:14.786Z,98949.53
2023-01-17T23:02:42.690Z,98945.16
2023-01-17T23:05:10.829Z,98952.03
2023-01-17T23:07:43.759Z,98941.66
2023-01-17T23:10:13.869Z,98947.66
2023-01-17T23:12:42.538Z,98950.19
2023-01-17T23:15:28.349Z,98944.97
2023-01-17T23:18:14.207Z,98956.16
2023-01-17T23:20:41.559Z,98952.66
2023-01-17T23:23:10.977Z,98958.72
2023-01-17T23:25:38.292Z,98955.25
2023-01-17T23:28:11.443Z,98961.25
2023-01-17T23:30:42.975Z,98960.38
2023-01-17T23:33:15.362Z,98956.94
2023-01-17T23:35:45.334Z,98967.22
2023-01-17T23:38:26.672Z,98962.06
2023-01-17T23:41:19.513Z,98965.50
2023-01-17T23:43:52.036Z,98963.75
2023-01-17T23:46:19.323Z,98971.47
2023-01-17T23:48:46.867Z,98968.84
2023-01-17T23:51:14.228Z,98974.00
2023-01-17T23:53:41.908Z,98975.78
2023-01-17T23:56:19.632Z,98977.44
2023-01-17T23:58:46.918Z,98977.41
